createdAt,value
2023-04-12T00:00:12.577Z,2.27
2023-04-12T00:02:44.047Z,2.73
2023-04-12T00:05:17.920Z,2.70
2023-04-12T00:07:49.114Z,2.50
2023-04-12T00:10:19.248Z,2.40
2023-04-12T00:12:50.990Z,2.60
2023-04-12T00:15:19.338Z,2.37
2023-04-12T00:17:50.882Z,3.20
2023-04-12T00:20:18.765Z,2.70
2023-04-12T00:22:46.956Z,2.00
2023-04-12T00:25:15.271Z,2.77
2023-04-12T00:27:44.925Z,2.47
2023-04-12T00:30:13.609Z,2.27
2023-04-12T00:32:49.664Z,2.73
2023-04-12T00:35:21.191Z,2.00
2023-04-12T00:37:51.842Z,2.57
2023-04-12T00:40:19.636Z,2.33
2023-04-12T00:42:51.347Z,2.27
2023-04-12T00:45:19.802Z,2.70
2023-04-12T00:47:57.513Z,2.40
2023-04-12T00:50:25.920Z,2.97
2023-04-12T00:53:01.629Z,2.47
2023-04-12T00:55:30.847Z,2.53
2023-04-12T00:58:10.856Z,2.70
2023-04-12T01:00:42.260Z,2.80
2023-04-12T01:03:12.301Z,3.10
2023-04-12T01:05:46.683Z,2.17
2023-04-12T01:08:26.131Z,2.10
2023-04-12T01:11:02.763Z,2.07
2023-04-12T01:13:38.105Z,2.67
2023-04-12T01:16:10.775Z,2.20
2023-04-12T01:18:46.199Z,2.90
2023-04-12T01:21:25.226Z,2.63
2023-04-12T01:24:06.441Z,2.40
2023-04-12T01:26:40.822Z,3.10
2023-04-12T01:29:13.070Z,2.40
2023-04-12T01:31:43.175Z,2.80
2023-04-12T01:34:13.125Z,2.97
2023-04-12T01:36:45.916Z,2.57
2023-04-12T01:39:20.138Z,2.80
2023-04-12T01:41:49.955Z,2.37
2023-04-12T01:44:23.059Z,3.00
2023-04-12T01:46:53.174Z,3.20
2023-04-12T01:49:23.943Z,3.37
2023-04-12T01:51:56.709Z,2.83
2023-04-12T01:54:36.106Z,2.70
2023-04-12T01:57:05.611Z,2.90
2023-04-12T01:59:37.768Z,2.97
2023-04-12T02:02:09.350Z,2.70
2023-04-12T02:04:38.333Z,3.00
2023-04-12T02:07:09.553Z,2.80
2023-04-12T02:09:38.500Z,2.73
2023-04-12T02:12:09.234Z,2.77
2023-04-12T02:14:46.531Z,2.60
2023-04-12T02:17:17.768Z,2.47
2023-04-12T02:19:48.445Z,2.30
2023-04-12T02:22:17.621Z,2.83
2023-04-12T02:24:46.557Z,2.50
2023-04-12T02:27:15.565Z,2.60
2023-04-12T02:29:48.810Z,2.33
2023-04-12T02:32:18.800Z,2.70
2023-04-12T02:34:53.247Z,2.70
2023-04-12T02:37:24.487Z,2.30
2023-04-12T02:39:52.601Z,2.53
2023-04-12T02:42:22.761Z,2.90
2023-04-12T02:44:57.007Z,2.70
2023-04-12T02:47:28.804Z,2.10
2023-04-12T02:49:57.210Z,2.13
2023-04-12T02:52:26.001Z,2.30
2023-04-12T02:54:56.636Z,3.00
2023-04-12T02:57:29.744Z,2.50
2023-04-12T03:00:07.716Z,2.73
2023-04-12T03:02:36.519Z,2.70
2023-04-12T03:05:05.310Z,2.80
2023-04-12T03:07:34.078Z,2.57
2023-04-12T03:10:06.840Z,2.70
2023-04-12T03:12:43.565Z,2.07
2023-04-12T03:15:14.305Z,2.70
2023-04-12T03:17:45.317Z,2.63
2023-04-12T03:20:18.126Z,1.83
2023-04-12T03:22:50.739Z,2.70
2023-04-12T03:25:27.450Z,2.10
2023-04-12T03:27:55.485Z,2.17
2023-04-12T03:30:29.176Z,2.20
2023-04-12T03:33:08.446Z,2.70
2023-04-12T03:35:43.947Z,2.40
2023-04-12T03:38:18.169Z,2.00
2023-04-12T03:40:48.784Z,1.97
2023-04-12T03:43:21.497Z,2.60
2023-04-12T03:45:51.097Z,2.37
2023-04-12T03:48:20.687Z,2.53
2023-04-12T03:50:51.459Z,2.30
2023-04-12T03:53:21.620Z,1.77
2023-04-12T03:55:49.407Z,1.43
2023-04-12T03:58:19.435Z,2.03
2023-04-12T04:00:55.395Z,2.13
2023-04-12T04:03:30.935Z,2.63
2023-04-12T04:05:59.456Z,2.10
2023-04-12T04:08:27.504Z,3.13
2023-04-12T04:11:01.375Z,1.83
2023-04-12T04:13:29.573Z,2.20
2023-04-12T04:16:04.296Z,2.40
2023-04-12T04:18:32.933Z,1.73
2023-04-12T04:21:08.730Z,2.30
2023-04-12T04:23:40.810Z,1.80
2023-04-12T04:26:13.506Z,1.80
2023-04-12T04:28:45.224Z,2.00
2023-04-12T04:31:24.021Z,2.07
2023-04-12T04:33:54.991Z,1.73
2023-04-12T04:36:28.806Z,1.93
2023-04-12T04:38:58.645Z,1.60
2023-04-12T04:41:27.105Z,1.40
2023-04-12T04:43:55.594Z,1.40
2023-04-12T04:46:25.862Z,1.60
2023-04-12T04:48:55.173Z,1.77
2023-04-12T04:51:22.957Z,1.90
2023-04-12T04:53:51.126Z,1.30
2023-04-12T04:56:23.464Z,1.50
2023-04-12T04:58:57.084Z,1.80
2023-04-12T05:01:28.866Z,1.43
2023-04-12T05:04:14.897Z,1.83
2023-04-12T05:06:45.039Z,1.73
2023-04-12T05:09:19.517Z,1.60
2023-04-12T05:11:47.607Z,1.30
2023-04-12T05:14:23.592Z,1.30
2023-04-12T05:16:57.616Z,1.23
2023-04-12T05:19:29.956Z,1.67
2023-04-12T05:22:02.195Z,1.50
2023-04-12T05:24:33.345Z,1.80
2023-04-12T05:27:01.755Z,1.57
2023-04-12T05:29:31.941Z,2.60
2023-04-12T05:32:04.295Z,1.90
2023-04-12T05:34:38.930Z,1.60
2023-04-12T05:37:08.508Z,1.50
2023-04-12T05:39:36.726Z,1.50
2023-04-12T05:42:05.617Z,1.97
2023-04-12T05:44:39.908Z,2.30
2023-04-12T05:47:12.970Z,2.17
2023-04-12T05:49:42.436Z,1.50
2023-04-12T05:52:11.785Z,1.60
2023-04-12T05:54:42.108Z,1.80
2023-04-12T05:57:12.960Z,1.80
2023-04-12T05:59:43.542Z,1.93
2023-04-12T06:02:14.842Z,1.60
2023-04-12T06:04:50.167Z,3.20
2023-04-12T06:07:21.637Z,2.57
2023-04-12T06:09:50.865Z,1.90
2023-04-12T06:12:19.945Z,1.60
2023-04-12T06:14:48.119Z,1.60
2023-04-12T06:17:18.671Z,2.00
2023-04-12T06:19:47.058Z,1.87
2023-04-12T06:22:17.396Z,2.40
2023-04-12T06:24:48.212Z,2.17
2023-04-12T06:27:17.192Z,1.57
2023-04-12T06:29:48.786Z,2.10
2023-04-12T06:32:18.454Z,1.70
2023-04-12T06:34:46.811Z,2.70
2023-04-12T06:37:16.613Z,1.90
2023-04-12T06:39:47.604Z,2.47
2023-04-12T06:42:17.030Z,2.10
2023-04-12T06:44:48.007Z,1.90
2023-04-12T06:47:17.344Z,2.63
2023-04-12T06:49:45.311Z,1.87
2023-04-12T06:52:14.778Z,2.07
2023-04-12T06:54:42.834Z,1.93
2023-04-12T06:57:13.730Z,1.70
2023-04-12T06:59:41.512Z,1.87
2023-04-12T07:02:10.636Z,2.30
2023-04-12T07:04:40.589Z,2.10
2023-04-12T07:07:08.997Z,2.03
2023-04-12T07:09:38.198Z,2.17
2023-04-12T07:12:06.685Z,2.30
2023-04-12T07:14:37.902Z,1.90
2023-04-12T07:17:06.241Z,1.83
2023-04-12T07:19:34.964Z,2.00
2023-04-12T07:22:07.916Z,1.83
2023-04-12T07:24:38.828Z,2.00
2023-04-12T07:27:11.547Z,1.50
2023-04-12T07:29:43.266Z,1.70
2023-04-12T07:32:14.774Z,1.97
2023-04-12T07:34:45.370Z,1.70
2023-04-12T07:37:18.339Z,1.83
2023-04-12T07:39:48.158Z,1.70
2023-04-12T07:42:16.378Z,1.73
2023-04-12T07:44:46.660Z,2.47
2023-04-12T07:47:17.439Z,2.07
2023-04-12T07:49:51.379Z,2.20
2023-04-12T07:52:21.068Z,1.90
2023-04-12T07:54:49.678Z,1.73
2023-04-12T07:57:20.358Z,1.90
2023-04-12T07:59:49.864Z,1.70
2023-04-12T08:02:24.807Z,2.00
2023-04-12T08:04:55.543Z,1.50
2023-04-12T08:07:27.665Z,2.20
2023-04-12T08:09:56.216Z,1.67
2023-04-12T08:12:25.971Z,1.70
2023-04-12T08:14:58.075Z,1.83
2023-04-12T08:17:32.308Z,1.73
2023-04-12T08:20:09.150Z,1.97
2023-04-12T08:22:42.836Z,2.40
2023-04-12T08:25:17.559Z,1.87
2023-04-12T08:27:47.094Z,2.00
2023-04-12T08:30:16.828Z,1.93
2023-04-12T08:32:45.090Z,1.90
2023-04-12T08:35:13.562Z,2.13
2023-04-12T08:37:44.171Z,2.20
2023-04-12T08:40:19.364Z,1.80
2023-04-12T08:42:48.597Z,2.07
2023-04-12T08:45:19.594Z,2.10
2023-04-12T08:47:48.478Z,1.90
2023-04-12T08:50:19.700Z,1.70
2023-04-12T08:52:51.155Z,2.57
2023-04-12T08:55:25.608Z,2.40
2023-04-12T08:57:57.617Z,2.10
2023-04-12T09:00:28.534Z,1.70
2023-04-12T09:02:57.050Z,2.37
2023-04-12T09:05:30.378Z,2.40
2023-04-12T09:08:01.781Z,2.20
2023-04-12T09:10:34.438Z,2.10
2023-04-12T09:13:04.175Z,2.03
2023-04-12T09:15:34.665Z,2.30
2023-04-12T09:18:08.126Z,1.67
2023-04-12T09:20:38.198Z,2.50
2023-04-12T09:23:22.709Z,2.00
2023-04-12T09:25:54.461Z,2.90
2023-04-12T09:28:28.426Z,2.30
2023-04-12T09:30:57.950Z,2.70
2023-04-12T09:33:34.942Z,2.27
2023-04-12T09:36:04.446Z,2.13
2023-04-12T09:38:46.386Z,1.83
2023-04-12T09:41:35.499Z,2.47
2023-04-12T09:44:07.965Z,2.60
2023-04-12T09:46:36.952Z,2.90
2023-04-12T09:49:10.012Z,2.50
2023-04-12T09:51:40.542Z,2.60
2023-04-12T09:54:12.347Z,2.20
2023-04-12T09:56:46.839Z,2.50
2023-04-12T09:59:27.371Z,2.30
2023-04-12T10:01:56.414Z,2.43
2023-04-12T10:04:26.711Z,2.77
2023-04-12T10:07:04.917Z,2.10
2023-04-12T10:09:35.250Z,1.87
2023-04-12T10:12:04.758Z,1.90
2023-04-12T10:14:33.948Z,2.00
2023-04-12T10:17:06.252Z,1.97
2023-04-12T10:19:35.387Z,1.77
2023-04-12T10:22:06.708Z,1.90
2023-04-12T10:24:38.068Z,2.27
2023-04-12T10:27:07.787Z,1.97
2023-04-12T10:29:38.359Z,1.40
2023-04-12T10:32:23.083Z,1.90
2023-04-12T10:34:55.407Z,1.90
2023-04-12T10:37:25.864Z,1.90
2023-04-12T10:39:56.449Z,2.37
2023-04-12T10:42:33.101Z,2.00
2023-04-12T10:45:31.223Z,1.60
2023-04-12T10:48:04.535Z,2.03
2023-04-12T10:50:35.665Z,1.67
2023-04-12T10:53:26.260Z,1.93
2023-04-12T10:56:02.888Z,1.40
2023-04-12T10:58:57.030Z,1.80
2023-04-12T11:01:31.960Z,2.20
2023-04-12T11:04:11.853Z,1.63
2023-04-12T11:07:01.926Z,2.00
2023-04-12T11:09:32.065Z,1.60
2023-04-12T11:12:15.005Z,1.60
2023-04-12T11:14:53.182Z,1.70
2023-04-12T11:17:28.753Z,1.83
2023-04-12T11:20:05.289Z,1.93
2023-04-12T11:22:37.045Z,1.30
2023-04-12T11:25:06.001Z,1.60
2023-04-12T11:27:40.220Z,1.97
2023-04-12T11:30:11.202Z,1.07
2023-04-12T11:32:41.859Z,1.57
2023-04-12T11:35:11.120Z,1.93
2023-04-12T11:37:39.999Z,1.23
2023-04-12T11:40:14.603Z,1.53
2023-04-12T11:42:45.516Z,1.47
2023-04-12T11:45:18.317Z,1.30
2023-04-12T11:47:47.164Z,0.90
2023-04-12T11:50:30.016Z,1.40
2023-04-12T11:53:11.369Z,1.30
2023-04-12T11:55:39.599Z,1.33
2023-04-12T11:58:09.760Z,1.30
2023-04-12T12:00:39.155Z,1.40
2023-04-12T12:03:08.825Z,1.20
2023-04-12T12:05:40.924Z,1.50
2023-04-12T12:08:09.579Z,1.33
2023-04-12T12:10:46.945Z,1.60
2023-04-12T12:13:31.814Z,1.50
2023-04-12T12:16:01.371Z,1.30
2023-04-12T12:18:30.371Z,1.30
2023-04-12T12:21:01.612Z,1.30
2023-04-12T12:26:28.078Z,1.03
2023-04-12T12:29:01.476Z,1.00
2023-04-12T12:31:31.222Z,0.87
2023-04-12T12:34:01.207Z,1.00
2023-04-12T12:36:36.220Z,1.10
2023-04-12T12:39:07.384Z,1.63
2023-04-12T12:41:36.434Z,1.50
2023-04-12T12:44:07.296Z,1.40
2023-04-12T12:49:12.228Z,1.33
2023-04-12T12:51:43.055Z,1.23
2023-04-12T12:54:11.396Z,1.13
2023-04-12T12:56:41.720Z,1.30
2023-04-12T12:59:26.032Z,1.47
2023-04-12T13:01:54.566Z,1.37
2023-04-12T13:04:25.484Z,1.33
2023-04-12T13:06:58.227Z,1.57
2023-04-12T13:09:28.392Z,1.23
2023-04-12T13:12:00.087Z,1.33
2023-04-12T13:14:29.947Z,1.10
2023-04-12T13:17:03.030Z,1.20
2023-04-12T13:19:31.330Z,1.37
2023-04-12T13:22:02.419Z,1.30
2023-04-12T13:24:32.915Z,1.30
2023-04-12T13:27:03.426Z,1.50
2023-04-12T13:29:33.365Z,1.03
2023-04-12T13:32:04.298Z,1.07
2023-04-12T13:34:43.440Z,1.30
2023-04-12T13:37:11.403Z,1.50
2023-04-12T13:39:42.427Z,1.50
2023-04-12T13:42:13.346Z,1.40
2023-04-12T13:44:47.907Z,1.20
2023-04-12T13:47:18.680Z,1.30
2023-04-12T13:49:47.483Z,1.53
2023-04-12T13:52:15.741Z,1.20
2023-04-12T13:54:46.263Z,1.00
2023-04-12T13:57:17.511Z,1.40
2023-04-12T13:59:49.841Z,1.10
2023-04-12T14:02:18.068Z,1.20
2023-04-12T14:04:52.364Z,1.93
2023-04-12T14:07:22.725Z,0.90
2023-04-12T14:09:51.065Z,1.20
2023-04-12T14:12:23.101Z,1.23
2023-04-12T14:14:52.923Z,1.20
2023-04-12T14:17:21.440Z,0.70
2023-04-12T14:19:55.435Z,1.80
2023-04-12T14:22:26.286Z,1.57
2023-04-12T14:24:57.972Z,1.10
2023-04-12T14:27:27.840Z,1.30
2023-04-12T14:30:03.363Z,1.10
2023-04-12T14:32:31.911Z,1.00
2023-04-12T14:35:01.402Z,0.90
2023-04-12T14:37:29.872Z,1.00
2023-04-12T14:40:01.009Z,0.97
2023-04-12T14:42:29.081Z,1.13
2023-04-12T14:45:00.924Z,0.93
2023-04-12T14:47:29.496Z,1.27
2023-04-12T14:49:57.867Z,1.00
2023-04-12T14:52:26.228Z,1.23
2023-04-12T14:54:54.896Z,0.97
2023-04-12T14:57:28.430Z,1.13
2023-04-12T15:00:02.925Z,1.27
2023-04-12T15:02:31.760Z,0.93
2023-04-12T15:05:11.425Z,0.70
2023-04-12T15:07:51.612Z,0.90
2023-04-12T15:10:20.915Z,1.07
2023-04-12T15:12:54.589Z,0.90
2023-04-12T15:15:27.650Z,0.80
2023-04-12T15:17:59.004Z,0.87
2023-04-12T15:20:28.049Z,1.00
2023-04-12T15:22:59.479Z,1.00
2023-04-12T15:25:28.549Z,0.90
2023-04-12T15:27:57.407Z,1.00
2023-04-12T15:30:29.823Z,1.07
2023-04-12T15:32:58.795Z,0.63
2023-04-12T15:35:27.627Z,0.63
2023-04-12T15:37:56.298Z,1.10
2023-04-12T15:40:25.963Z,0.80
2023-04-12T15:42:59.130Z,0.70
2023-04-12T15:45:32.311Z,0.50
2023-04-12T15:48:12.609Z,0.77
2023-04-12T15:50:44.187Z,0.80
2023-04-12T15:53:12.740Z,0.60
2023-04-12T15:55:48.159Z,0.60
2023-04-12T15:58:16.249Z,0.70
2023-04-12T16:00:45.978Z,1.07
2023-04-12T16:03:18.161Z,0.70
2023-04-12T16:05:47.534Z,0.67
2023-04-12T16:08:17.192Z,0.70
2023-04-12T16:10:55.266Z,0.53
2023-04-12T16:13:24.021Z,0.60
2023-04-12T16:15:56.589Z,0.73
2023-04-12T16:18:27.685Z,1.10
2023-04-12T16:20:55.848Z,0.50
2023-04-12T16:23:28.276Z,0.70
2023-04-12T16:25:57.870Z,0.70
2023-04-12T16:28:34.317Z,1.00
2023-04-12T16:31:07.250Z,1.20
2023-04-12T16:33:37.354Z,0.87
2023-04-12T16:36:06.968Z,1.67
2023-04-12T16:38:35.513Z,1.30
2023-04-12T16:41:09.806Z,1.10
2023-04-12T16:43:44.032Z,0.90
2023-04-12T16:46:16.623Z,1.03
2023-04-12T16:48:45.443Z,0.90
2023-04-12T16:51:13.531Z,1.30
2023-04-12T16:53:41.533Z,1.00
2023-04-12T16:56:09.567Z,1.00
2023-04-12T16:58:37.995Z,1.00
2023-04-12T17:01:08.020Z,1.00
2023-04-12T17:03:41.021Z,1.07
2023-04-12T17:06:12.109Z,1.00
2023-04-12T17:08:43.590Z,1.63
2023-04-12T17:11:13.023Z,0.90
2023-04-12T17:13:46.419Z,0.83
2023-04-12T17:16:17.808Z,1.57
2023-04-12T17:18:54.830Z,1.47
2023-04-12T17:21:23.280Z,0.80
2023-04-12T17:23:54.542Z,1.03
2023-04-12T17:26:27.436Z,1.50
2023-04-12T17:28:56.935Z,1.53
2023-04-12T17:31:35.839Z,1.40
2023-04-12T17:34:05.779Z,1.93
2023-04-12T17:36:35.552Z,1.50
2023-04-12T17:39:05.356Z,2.13
2023-04-12T17:41:36.022Z,1.23
2023-04-12T17:44:08.212Z,1.37
2023-04-12T17:46:37.055Z,1.40
2023-04-12T17:49:11.383Z,1.07
2023-04-12T17:51:40.667Z,1.20
2023-04-12T17:54:13.896Z,1.10
2023-04-12T17:56:42.987Z,1.30
2023-04-12T17:59:11.813Z,1.00
2023-04-12T18:01:40.138Z,1.03
2023-04-12T18:04:14.723Z,1.20
2023-04-12T18:06:48.277Z,1.30
2023-04-12T18:09:23.729Z,1.17
2023-04-12T18:11:52.979Z,0.90
2023-04-12T18:14:40.619Z,1.37
2023-04-12T18:17:11.977Z,1.17
2023-04-12T18:19:41.886Z,1.27
2023-04-12T18:22:10.064Z,1.20
2023-04-12T18:24:41.790Z,1.97
2023-04-12T18:27:10.051Z,1.80
2023-04-12T18:29:38.286Z,1.53
2023-04-12T18:32:06.813Z,1.20
2023-04-12T18:34:34.844Z,0.93
2023-04-12T18:37:06.005Z,1.00
2023-04-12T18:39:37.042Z,1.13
2023-04-12T18:42:05.949Z,1.00
2023-04-12T18:44:34.684Z,1.20
2023-04-12T18:47:07.351Z,1.20
2023-04-12T18:49:38.645Z,1.17
2023-04-12T18:52:08.698Z,1.30
2023-04-12T18:54:53.569Z,1.10
2023-04-12T18:57:24.804Z,1.00
2023-04-12T18:59:53.634Z,1.07
2023-04-12T19:02:28.463Z,0.90
2023-04-12T19:04:56.708Z,1.17
2023-04-12T19:07:26.588Z,1.90
2023-04-12T19:09:54.951Z,2.53
2023-04-12T19:12:28.026Z,2.10
2023-04-12T19:14:56.198Z,1.50
2023-04-12T19:17:37.793Z,1.53
2023-04-12T19:20:09.334Z,1.13
2023-04-12T19:22:48.035Z,1.10
2023-04-12T19:25:18.934Z,1.30
2023-04-12T19:27:53.010Z,1.30
2023-04-12T19:30:22.063Z,1.20
2023-04-12T19:32:56.156Z,1.40
2023-04-12T19:35:32.944Z,0.90
2023-04-12T19:38:06.132Z,1.00
2023-04-12T19:40:34.163Z,0.80
2023-04-12T19:43:05.772Z,1.17
2023-04-12T19:45:35.557Z,1.40
2023-04-12T19:48:05.518Z,1.47
2023-04-12T19:50:36.103Z,1.10
2023-04-12T19:53:07.277Z,1.40
2023-04-12T19:55:36.246Z,1.20
2023-04-12T19:58:09.158Z,0.93
2023-04-12T20:00:41.439Z,0.80
2023-04-12T20:03:25.413Z,1.20
2023-04-12T20:05:59.514Z,0.80
2023-04-12T20:08:30.281Z,0.93
2023-04-12T20:10:58.645Z,1.33
2023-04-12T20:13:30.858Z,0.83
2023-04-12T20:16:03.433Z,0.80
2023-04-12T20:18:33.479Z,1.10
2023-04-12T20:21:01.804Z,1.17
2023-04-12T20:23:34.397Z,1.00
2023-04-12T20:26:02.925Z,1.07
2023-04-12T20:28:38.067Z,0.73
2023-04-12T20:31:17.080Z,0.90
2023-04-12T20:33:49.054Z,0.70
2023-04-12T20:36:24.781Z,0.80
2023-04-12T20:39:01.740Z,0.60
2023-04-12T20:41:30.710Z,0.50
2023-04-12T20:44:01.264Z,0.43
2023-04-12T20:46:32.055Z,0.43
2023-04-12T20:49:03.318Z,0.60
2023-04-12T20:51:40.428Z,0.50
2023-04-12T20:54:11.565Z,0.70
2023-04-12T20:56:45.564Z,0.70
2023-04-12T20:59:13.431Z,0.60
2023-04-12T21:01:45.902Z,0.53
2023-04-12T21:04:15.832Z,0.80
2023-04-12T21:06:45.756Z,0.50
2023-04-12T21:09:18.686Z,0.60
2023-04-12T21:11:49.022Z,0.43
2023-04-12T21:14:19.767Z,0.50
2023-04-12T21:16:49.231Z,0.50
2023-04-12T21:19:26.627Z,0.70
2023-04-12T21:21:54.800Z,0.60
2023-04-12T21:24:28.334Z,0.47
2023-04-12T21:27:00.449Z,0.77
2023-04-12T21:29:40.131Z,0.60
2023-04-12T21:32:09.106Z,0.70
2023-04-12T21:34:39.581Z,0.70
2023-04-12T21:37:12.952Z,0.60
2023-04-12T21:39:44.455Z,0.50
2023-04-12T21:42:14.199Z,0.60
2023-04-12T21:44:42.794Z,0.60
2023-04-12T21:47:13.254Z,0.67
2023-04-12T21:49:46.267Z,0.67
2023-04-12T21:52:15.087Z,0.70
2023-04-12T21:54:50.829Z,0.83
2023-04-12T21:57:24.511Z,0.77
2023-04-12T21:59:52.744Z,0.70
2023-04-12T22:02:23.251Z,0.90
2023-04-12T22:04:54.724Z,0.70
2023-04-12T22:07:25.393Z,0.60
2023-04-12T22:10:08.731Z,0.50
2023-04-12T22:12:36.509Z,0.80
2023-04-12T22:15:14.783Z,0.70
2023-04-12T22:17:43.287Z,0.97
2023-04-12T22:20:15.308Z,0.60
2023-04-12T22:22:51.769Z,0.63
2023-04-12T22:25:24.213Z,0.77
2023-04-12T22:28:00.200Z,0.97
2023-04-12T22:30:30.668Z,0.70
2023-04-12T22:33:08.889Z,0.70
2023-04-12T22:35:43.356Z,0.80
2023-04-12T22:38:16.494Z,1.07
2023-04-12T22:40:48.388Z,1.00
2023-04-12T22:43:19.088Z,0.60
2023-04-12T22:45:49.403Z,0.63
2023-04-12T22:48:21.698Z,0.70
2023-04-12T22:50:51.030Z,0.63
2023-04-12T22:53:19.350Z,1.03
2023-04-12T22:55:50.081Z,0.70
2023-04-12T22:58:18.499Z,0.60
2023-04-12T23:00:49.497Z,0.80
2023-04-12T23:03:31.749Z,1.00
2023-04-12T23:06:00.457Z,0.80
2023-04-12T23:08:31.679Z,0.70
2023-04-12T23:11:04.686Z,0.80
2023-04-12T23:13:34.742Z,0.80
2023-04-12T23:16:05.435Z,0.70
2023-04-12T23:18:33.873Z,1.07
2023-04-12T23:21:03.067Z,0.90
2023-04-12T23:23:34.659Z,0.90
2023-04-12T23:26:08.546Z,0.80
2023-04-12T23:28:37.713Z,0.60
2023-04-12T23:31:07.261Z,1.00
2023-04-12T23:33:35.209Z,1.23
2023-04-12T23:36:06.228Z,0.83
2023-04-12T23:38:39.174Z,1.00
2023-04-12T23:41:14.073Z,0.83
2023-04-12T23:43:42.516Z,0.87
2023-04-12T23:46:11.347Z,0.90
2023-04-12T23:48:44.327Z,1.00
2023-04-12T23:51:15.060Z,1.00
2023-04-12T23:53:43.153Z,1.00
2023-04-12T23:56:13.668Z,0.67
2023-04-12T23:58:44.732Z,0.87
